createdAt,value
2023-04-29T00:04:05.319Z,54.24
2023-04-29T00:09:08.646Z,53.43
2023-04-29T00:14:11.426Z,52.34
2023-04-29T00:19:14.202Z,51.47
2023-04-29T00:24:16.881Z,51.75
2023-04-29T00:29:19.884Z,50.72
2023-04-29T00:34:23.032Z,50.55
2023-04-29T00:39:26.090Z,50.46
2023-04-29T00:44:28.908Z,50.38
2023-04-29T00:49:31.995Z,49.76
2023-04-29T00:54:35.881Z,48.38
2023-04-29T00:59:39.247Z,48.36
2023-04-29T01:04:42.041Z,48.93
2023-04-29T01:09:59.391Z,48.03
2023-04-29T01:15:17.471Z,47.73
2023-04-29T01:20:21.694Z,47.95
2023-04-29T01:25:24.669Z,48.55
2023-04-29T01:30:40.718Z,47.96
2023-04-29T01:35:44.009Z,48.02
2023-04-29T01:40:50.481Z,48.11
2023-04-29T01:45:59.643Z,48.42
2023-04-29T01:51:03.135Z,48.30
2023-04-29T01:56:07.360Z,48.58
2023-04-29T02:01:25.119Z,48.55
2023-04-29T02:06:28.682Z,47.82
2023-04-29T02:11:35.778Z,48.03
2023-04-29T02:16:38.739Z,47.27
2023-04-29T02:21:43.465Z,46.23
2023-04-29T02:26:46.374Z,46.51
2023-04-29T02:31:49.214Z,46.39
2023-04-29T02:36:52.474Z,45.58
2023-04-29T02:41:57.495Z,45.13
2023-04-29T02:47:00.295Z,44.67
2023-04-29T02:52:03.178Z,43.80
2023-04-29T02:57:06.263Z,43.71
2023-04-29T03:02:09.414Z,43.37
2023-04-29T03:07:12.760Z,41.96
2023-04-29T03:12:17.257Z,42.09
2023-04-29T03:17:22.169Z,42.15
2023-04-29T03:22:25.226Z,41.65
2023-04-29T03:27:28.720Z,41.20
2023-04-29T03:32:31.977Z,40.73
2023-04-29T03:37:36.005Z,39.95
2023-04-29T03:42:52.181Z,39.16
2023-04-29T03:47:56.550Z,39.36
2023-04-29T03:52:59.682Z,39.64
2023-04-29T03:58:03.038Z,39.18
2023-04-29T04:03:06.158Z,37.25
2023-04-29T04:08:11.697Z,35.88
2023-04-29T04:13:30.561Z,36.05
2023-04-29T04:18:33.975Z,35.97
2023-04-29T04:23:38.412Z,36.00
2023-04-29T04:28:41.807Z,36.03
2023-04-29T04:33:49.403Z,36.19
2023-04-29T04:38:52.727Z,36.62
2023-04-29T04:43:55.583Z,36.71
2023-04-29T04:49:31.703Z,35.70
2023-04-29T04:54:35.898Z,36.43
2023-04-29T04:59:54.018Z,36.88
2023-04-29T05:04:57.368Z,36.31
2023-04-29T05:10:08.937Z,36.77
2023-04-29T05:15:20.077Z,36.67
2023-04-29T05:20:26.650Z,36.36
2023-04-29T05:25:31.625Z,36.31
2023-04-29T05:30:35.294Z,35.45
2023-04-29T05:35:38.387Z,35.34
2023-04-29T05:40:41.568Z,35.18
2023-04-29T05:46:04.158Z,34.64
2023-04-29T05:51:07.197Z,35.13
2023-04-29T05:56:11.441Z,33.74
2023-04-29T06:01:15.634Z,34.10
2023-04-29T06:06:19.150Z,34.03
2023-04-29T06:11:57.316Z,33.50
2023-04-29T06:17:00.442Z,33.82
2023-04-29T06:22:04.320Z,33.36
2023-04-29T06:27:08.307Z,34.00
2023-04-29T06:32:11.436Z,32.85
2023-04-29T06:37:14.682Z,32.07
2023-04-29T06:42:35.556Z,32.09
2023-04-29T06:48:01.526Z,32.80
2023-04-29T06:53:24.901Z,32.26
2023-04-29T06:58:28.130Z,31.96
2023-04-29T07:03:31.833Z,32.40
2023-04-29T07:08:35.349Z,32.35
2023-04-29T07:13:38.678Z,32.35
2023-04-29T07:18:41.974Z,31.80
2023-04-29T07:23:45.393Z,31.45
2023-04-29T07:28:50.746Z,31.57
2023-04-29T07:33:54.217Z,31.75
2023-04-29T07:38:57.576Z,31.89
2023-04-29T07:44:00.970Z,31.97
2023-04-29T07:49:06.152Z,31.80
2023-04-29T07:54:09.489Z,32.10
2023-04-29T07:59:13.023Z,32.60
2023-04-29T08:04:16.536Z,31.55
2023-04-29T08:09:27.004Z,32.25
2023-04-29T08:14:30.528Z,32.07
2023-04-29T08:19:35.234Z,32.09
2023-04-29T08:24:38.702Z,32.21
2023-04-29T08:29:45.688Z,32.13
2023-04-29T08:34:49.223Z,31.27
2023-04-29T08:39:52.311Z,31.58
2023-04-29T08:44:55.411Z,31.82
2023-04-29T08:50:06.314Z,31.70
2023-04-29T08:55:09.815Z,31.90
2023-04-29T09:00:13.714Z,31.58
2023-04-29T09:05:17.141Z,31.51
2023-04-29T09:10:20.467Z,32.09
2023-04-29T09:15:23.588Z,32.12
2023-04-29T09:20:27.851Z,32.06
2023-04-29T09:25:31.751Z,32.72
2023-04-29T09:30:46.748Z,32.21
2023-04-29T09:35:49.652Z,32.49
2023-04-29T09:40:59.581Z,32.27
2023-04-29T09:46:04.455Z,32.49
2023-04-29T09:51:07.527Z,32.08
2023-04-29T09:56:10.515Z,31.80
2023-04-29T10:01:14.807Z,32.05
2023-04-29T10:06:18.505Z,32.18
2023-04-29T10:11:22.077Z,31.96
2023-04-29T10:16:33.375Z,32.11
2023-04-29T10:21:36.835Z,31.95
2023-04-29T10:26:40.064Z,32.13
2023-04-29T10:31:44.293Z,32.45
2023-04-29T10:36:47.867Z,32.57
2023-04-29T10:41:51.811Z,32.34
2023-04-29T10:47:21.660Z,32.40
2023-04-29T10:52:24.667Z,32.60
2023-04-29T10:57:27.595Z,32.66
2023-04-29T11:02:30.619Z,32.64
2023-04-29T11:07:33.676Z,32.65
2023-04-29T11:12:36.812Z,32.69
2023-04-29T11:17:39.915Z,32.68
2023-04-29T11:22:43.507Z,32.40
2023-04-29T11:27:48.897Z,32.41
2023-04-29T11:32:52.546Z,31.99
2023-04-29T11:37:55.726Z,32.03
2023-04-29T11:42:58.951Z,32.01
2023-04-29T11:48:02.572Z,31.82
2023-04-29T11:53:06.454Z,32.07
2023-04-29T11:58:09.322Z,32.45
2023-04-29T12:03:17.574Z,32.56
2023-04-29T12:08:25.121Z,32.80
2023-04-29T12:13:31.551Z,32.28
2023-04-29T12:18:35.213Z,32.55
2023-04-29T12:23:38.070Z,33.01
2023-04-29T12:28:43.681Z,33.20
2023-04-29T12:33:46.572Z,32.45
2023-04-29T12:38:50.110Z,32.95
2023-04-29T12:43:53.086Z,32.05
2023-04-29T12:48:56.011Z,32.45
2023-04-29T12:54:02.307Z,33.26
2023-04-29T12:59:12.642Z,33.79
2023-04-29T13:04:15.522Z,33.41
2023-04-29T13:09:19.143Z,33.59
2023-04-29T13:14:22.798Z,31.80
2023-04-29T13:19:41.162Z,30.15
2023-04-29T13:24:48.387Z,29.98
2023-04-29T13:29:51.629Z,31.20
2023-04-29T13:34:55.193Z,32.70
2023-04-29T13:39:58.239Z,33.56
2023-04-29T13:45:01.599Z,34.39
2023-04-29T14:00:47.151Z,36.02
2023-04-29T14:05:42.776Z,37.22
2023-04-29T14:10:45.954Z,37.18
2023-04-29T14:15:48.906Z,37.72
2023-04-29T14:20:52.044Z,38.19
2023-04-29T14:25:58.840Z,37.99
2023-04-29T14:31:09.625Z,38.31
2023-04-29T14:36:12.685Z,38.99
2023-04-29T14:41:15.649Z,39.38
2023-04-29T14:46:18.589Z,39.13
2023-04-29T14:51:21.689Z,39.67
2023-04-29T14:56:24.425Z,39.94
2023-04-29T15:01:29.848Z,39.83
2023-04-29T15:06:34.202Z,40.10
2023-04-29T15:11:37.200Z,40.78
2023-04-29T15:16:39.987Z,40.77
2023-04-29T15:21:42.981Z,41.39
2023-04-29T15:26:46.942Z,41.48
2023-04-29T15:31:49.863Z,42.21
2023-04-29T15:36:52.898Z,42.01
2023-04-29T15:41:55.918Z,42.14
2023-04-29T15:46:58.743Z,42.85
2023-04-29T15:52:01.816Z,42.89
2023-04-29T15:57:04.856Z,42.75
2023-04-29T16:02:12.070Z,43.04
2023-04-29T16:07:15.094Z,43.08
2023-04-29T16:12:17.936Z,43.46
2023-04-29T16:17:20.904Z,43.52
2023-04-29T16:22:23.712Z,43.78
2023-04-29T16:27:30.321Z,44.17
2023-04-29T16:32:33.569Z,44.38
2023-04-29T16:37:36.769Z,44.44
2023-04-29T16:42:39.533Z,44.99
2023-04-29T16:47:42.935Z,45.04
2023-04-29T16:52:45.826Z,45.20
2023-04-29T16:57:48.557Z,45.37
2023-04-29T17:02:51.667Z,45.28
2023-04-29T17:07:55.303Z,45.14
2023-04-29T17:12:58.166Z,45.02
2023-04-29T17:18:01.051Z,45.12
2023-04-29T17:23:04.018Z,45.43
2023-04-29T17:28:07.313Z,44.99
2023-04-29T17:33:10.207Z,45.52
2023-04-29T17:38:13.099Z,45.41
2023-04-29T17:43:15.875Z,45.84
2023-04-29T17:48:19.754Z,45.82
2023-04-29T17:53:22.609Z,46.12
2023-04-29T17:58:25.459Z,46.76
2023-04-29T18:03:30.615Z,47.27
2023-04-29T18:08:33.260Z,47.95
2023-04-29T18:13:36.437Z,48.41
2023-04-29T18:18:39.328Z,48.99
2023-04-29T18:23:42.245Z,49.15
2023-04-29T18:28:46.661Z,49.97
2023-04-29T18:33:49.387Z,50.82
2023-04-29T18:38:52.514Z,51.07
2023-04-29T18:43:55.317Z,50.58
2023-04-29T18:48:58.100Z,50.92
2023-04-29T18:54:00.945Z,51.57
2023-04-29T18:59:04.342Z,51.43
2023-04-29T19:04:09.898Z,51.85
2023-04-29T19:09:13.912Z,52.54
2023-04-29T19:14:16.824Z,53.22
2023-04-29T19:19:19.623Z,52.90
2023-04-29T19:24:22.386Z,53.40
2023-04-29T19:29:25.153Z,53.09
2023-04-29T19:34:28.023Z,53.05
2023-04-29T19:39:31.102Z,53.46
2023-04-29T19:44:33.924Z,53.90
2023-04-29T19:49:37.642Z,53.84
2023-04-29T19:54:41.255Z,53.88
2023-04-29T19:59:44.071Z,54.57
2023-04-29T20:04:46.861Z,53.86
2023-04-29T20:09:50.051Z,54.16
2023-04-29T20:14:52.899Z,54.56
2023-04-29T20:19:55.984Z,54.19
2023-04-29T20:24:58.910Z,54.37
2023-04-29T20:30:01.983Z,54.65
2023-04-29T20:35:06.800Z,54.81
2023-04-29T20:40:10.297Z,55.14
2023-04-29T20:45:13.569Z,55.43
2023-04-29T20:50:16.522Z,55.41
2023-04-29T20:55:19.343Z,55.90
2023-04-29T21:00:23.436Z,55.98
2023-04-29T21:05:26.562Z,56.55
2023-04-29T21:10:29.352Z,56.06
2023-04-29T21:15:32.186Z,56.35
2023-04-29T21:20:36.302Z,56.49
2023-04-29T21:25:39.063Z,56.66
2023-04-29T21:30:41.918Z,56.28
2023-04-29T21:35:48.997Z,56.73
2023-04-29T21:40:53.881Z,57.09
2023-04-29T21:45:56.662Z,56.43
2023-04-29T21:51:00.353Z,57.19
2023-04-29T21:56:03.073Z,57.53
2023-04-29T22:01:25.899Z,57.14
2023-04-29T22:06:28.893Z,56.97
2023-04-29T22:11:31.904Z,57.51
2023-04-29T22:16:36.250Z,57.48
2023-04-29T22:21:41.122Z,58.12
2023-04-29T22:26:43.714Z,58.03
2023-04-29T22:31:46.559Z,57.52
2023-04-29T22:36:49.357Z,58.28
2023-04-29T22:41:52.203Z,57.82
2023-04-29T22:46:55.203Z,58.21
2023-04-29T22:51:58.101Z,57.13
2023-04-29T22:57:00.842Z,57.44
2023-04-29T23:02:03.799Z,57.19
2023-04-29T23:07:06.852Z,57.82
2023-04-29T23:12:09.550Z,57.09
2023-04-29T23:17:12.796Z,57.45
2023-04-29T23:22:17.339Z,57.86
2023-04-29T23:27:20.139Z,57.61
2023-04-29T23:32:24.713Z,57.86
2023-04-29T23:37:27.629Z,57.68
2023-04-29T23:42:30.873Z,57.34
2023-04-29T23:47:33.736Z,57.20
2023-04-29T23:52:36.552Z,57.54
2023-04-29T23:57:39.307Z,56.54
